Latest Weather Observations for Tindal

IDD60801

Issued at 2:01 pm CST Thursday 5 May 2016 (issued every 30 minutes, with the page automatically refreshed every 10 minutes)

About weather observations | Map of weather stations | Latest weather observations for NT | Other Formats
Station Details ID: 014932 Name: TINDAL RAAF Lat: -14.52 Lon: 132.38 Height: 133.6 m
Data from the previous 72 hours. | See also: Recent months at Tindal
Date/Time
CST
Temp
°C
App
Temp
°C
Dew
Point
Rel
Hum
%
Delta-T
°C
Wind Press
QNH
hPa
Press
MSL
hPa
Rain
since 9 am
mm
Dir
 
Spd
km/h
Gust
km/h
Spd
kts
Gust
kts
05/01:30pm 34.6 34.3 18.2 37 10.7 ENE 17 26 9 14 1010.8 - 0.0
05/01:00pm 34.5 34.5 18.9 39 10.3 ESE 17 22 9 12 1011.3 - 0.0
05/12:30pm 33.5 33.4 19.6 44 9.2 E 19 28 10 15 1011.9 - 0.0
05/12:00pm 32.2 32.7 20.1 48 8.1 ENE 17 26 9 14 1012.6 1011.9 0.0
05/11:30am 31.8 32.7 20.1 50 7.8 ESE 15 24 8 13 1013.1 - 0.0
05/11:00am 32.3 34.3 21.5 53 7.3 E 13 19 7 10 1013.6 - 0.0
05/10:30am 31.4 33.2 21.8 56 6.5 E 15 20 8 11 1013.8 - 0.0
05/10:00am 30.0 31.7 21.7 61 5.6 E 15 22 8 12 1013.9 - 0.0
05/09:30am 29.5 31.5 22.2 65 5.0 E 15 24 8 13 1013.9 - 0.0
05/09:00am 27.9 30.2 21.4 67 4.4 ESE 11 15 6 8 1014.0 1013.4 0.0
05/08:30am 26.4 29.0 21.2 73 3.5 SE 9 13 5 7 1013.9 - 0.0
05/08:00am 24.4 27.7 21.5 84 1.9 SE 6 9 3 5 1013.4 - 0.0
05/07:30am 23.3 25.9 21.2 88 1.4 ESE 9 11 5 6 1012.9 - 0.0
05/07:00am 22.6 25.4 20.9 90 1.1 ESE 7 11 4 6 1012.8 - 0.0
05/06:30am 22.4 25.5 20.3 88 1.4 SE 4 6 2 3 1012.5 - 0.0
05/06:00am 22.9 27.0 20.8 88 1.4 CALM 0 0 0 0 1012.3 1011.6 0.0
05/05:30am 22.9 26.2 20.8 88 1.4 ENE 4 7 2 4 1012.2 - 0.0
05/05:00am 23.1 27.1 20.6 86 1.6 CALM 0 0 0 0 1012.3 - 0.0
05/04:30am 23.2 26.1 20.7 86 1.6 E 6 7 3 4 1012.2 - 0.0
05/04:00am 23.3 27.3 20.6 85 1.8 CALM 0 0 0 0 1012.2 - 0.0
05/03:30am 23.9 28.1 21.0 84 1.9 CALM 0 0 0 0 1012.5 - 0.0
05/03:00am 23.8 26.8 20.9 84 1.9 SSW 6 7 3 4 1012.9 1012.3 0.0
05/02:30am 24.2 28.0 20.9 82 2.2 SSE 2 7 1 4 1012.8 - 0.0
05/02:00am 24.6 28.7 20.7 79 2.6 CALM 0 0 0 0 1013.0 - 0.0
05/01:30am 24.7 28.8 20.8 79 2.6 CALM 0 0 0 0 1013.2 - 0.0
05/01:00am 24.4 27.1 20.7 80 2.4 SE 7 9 4 5 1013.2 - 0.0
05/12:30am 24.7 27.4 20.6 78 2.7 SSE 7 9 4 5 1013.4 - 0.0
05/12:00am 25.5 29.5 20.5 74 3.3 CALM 0 0 0 0 1013.6 1013.0 0.0
 
Date/Time
CST
Temp
°C
App
Temp
°C
Dew
Point
Rel
Hum
%
Delta-T
°C
Wind Press
QNH
hPa
Press
MSL
hPa
Rain
since 9 am
mm
Dir
 
Spd
km/h
Gust
km/h
Spd
kts
Gust
kts
04/11:30pm 25.6 28.3 20.6 74 3.3 S 7 9 4 5 1013.6 - 0.0
04/11:00pm 25.9 28.8 20.7 73 3.4 SSW 6 9 3 5 1013.7 - 0.0
04/10:30pm 26.0 28.8 20.8 73 3.4 SSW 7 9 4 5 1013.7 - 0.0
04/10:00pm 25.9 28.7 20.9 74 3.3 SW 7 13 4 7 1013.5 - 0.0
04/09:30pm 27.1 31.2 20.7 68 4.2 CALM 0 0 0 0 1013.2 - 0.0
04/09:00pm 27.2 30.0 20.5 67 4.4 SE 6 7 3 4 1013.0 1012.4 0.0
04/08:30pm 28.4 31.0 20.1 60 5.5 N 6 9 3 5 1012.9 - 0.0
04/08:00pm 28.7 30.4 20.2 60 5.6 ENE 11 19 6 10 1012.1 - 0.0
04/07:30pm 28.8 29.9 20.5 61 5.5 ENE 15 24 8 13 1011.6 - 0.0
04/07:00pm 29.4 30.5 20.5 58 5.9 E 15 28 8 15 1011.4 - 0.0
04/06:30pm 29.4 29.2 20.5 58 5.9 E 22 33 12 18 1010.9 - 0.0
04/06:00pm 31.5 31.4 19.5 49 7.9 SE 19 24 10 13 1010.3 1009.6 0.0
04/05:30pm 33.0 32.9 18.7 42 9.4 E 17 28 9 15 1010.0 - 0.0
04/05:00pm 33.9 35.1 19.9 43 9.3 SE 13 20 7 11 1009.5 - 0.0
04/04:30pm 34.4 34.1 19.2 40 10.1 SE 19 22 10 12 1009.2 - 0.0
04/04:00pm 35.7 36.2 18.3 35 11.4 E 13 15 7 8 1009.1 - 0.0
04/03:30pm 35.1 34.8 18.2 36 11.1 ENE 17 24 9 13 1009.2 - 0.0
04/03:00pm 35.5 35.3 18.6 37 11.1 E 17 30 9 16 1009.5 1008.8 0.0
04/02:30pm 35.4 35.0 18.9 37 10.9 E 19 22 10 12 1010.0 - 0.0
04/02:00pm 35.8 36.0 19.3 38 11.0 E 17 26 9 14 1010.5 - 0.0
04/01:30pm 34.3 34.2 19.5 41 9.8 E 19 30 10 16 1011.1 - 0.0
04/01:00pm 34.6 35.2 20.2 43 9.7 NE 17 28 9 15 1011.6 - 0.0
04/12:30pm 34.1 34.3 20.5 45 9.1 E 20 35 11 19 1012.1 - 0.0
04/12:00pm 33.8 34.2 20.9 46 8.7 E 20 30 11 16 1012.6 1011.9 0.0
04/11:30am 33.0 34.0 21.8 51 7.6 SE 19 24 10 13 1013.3 - 0.0
04/11:00am 31.3 32.5 21.5 56 6.6 E 17 22 9 12 1013.9 - 0.0
04/10:30am 30.1 31.6 22.0 62 5.5 E 17 22 9 12 1014.3 - 0.0
04/10:00am 29.7 31.8 22.4 65 5.0 E 15 22 8 12 1014.5 - 0.0
04/09:30am 28.9 31.4 22.4 68 4.4 E 13 20 7 11 1014.6 - 0.0
04/09:00am 28.2 30.8 22.0 69 4.2 E 11 15 6 8 1014.3 1013.7 0.0
04/08:30am 26.8 28.7 21.3 72 3.7 ESE 13 17 7 9 1014.2 - 0.0
04/08:00am 25.7 28.2 21.1 76 3.1 SE 9 13 5 7 1014.3 - 0.0
04/07:30am 24.5 27.8 20.8 80 2.4 S 4 9 2 5 1013.8 - 0.0
04/07:00am 23.8 26.5 20.7 83 2.0 SSE 7 9 4 5 1013.3 - 0.0
04/06:30am 23.7 25.9 20.4 82 2.2 ESE 9 11 5 6 1012.9 - 0.0
04/06:00am 24.0 28.0 20.5 81 2.3 CALM 0 6 0 3 1012.6 1011.9 0.0
04/05:30am 24.7 27.9 20.6 78 2.7 ESE 4 7 2 4 1012.3 - 0.0
04/05:00am 25.1 27.4 20.6 76 3.0 E 9 11 5 6 1011.7 - 0.0
04/04:30am 25.2 27.9 20.7 76 3.0 E 7 11 4 6 1011.8 - 0.0
04/04:00am 24.7 27.6 20.6 78 2.7 ESE 6 9 3 5 1011.9 - 0.0
04/03:30am 25.1 27.9 20.8 77 2.8 SE 7 7 4 4 1012.0 - 0.0
04/03:00am 25.3 27.7 20.8 76 3.0 ESE 9 11 5 6 1012.1 1011.4 0.0
04/02:30am 25.7 27.4 20.9 75 3.2 SE 13 15 7 8 1012.4 - 0.0
04/02:00am 25.5 27.7 21.2 77 2.9 SE 11 13 6 7 1012.5 - 0.0
04/01:30am 26.0 27.8 21.2 75 3.2 SE 13 15 7 8 1012.8 - 0.0
04/01:00am 25.8 28.9 21.5 77 2.9 SE 7 7 4 4 1012.7 - 0.0
04/12:30am 25.6 28.3 21.3 77 2.9 SSE 9 9 5 5 1012.8 - 0.0
04/12:00am 25.9 28.9 21.3 76 3.1 SE 7 9 4 5 1012.8 1012.1 0.0
 
Date/Time
CST
Temp
°C
App
Temp
°C
Dew
Point
Rel
Hum
%
Delta-T
°C
Wind Press
QNH
hPa
Press
MSL
hPa
Rain
since 9 am
mm
Dir
 
Spd
km/h
Gust
km/h
Spd
kts
Gust
kts
03/11:30pm 26.1 28.3 21.1 74 3.3 SSE 11 15 6 8 1013.3 - 0.0
03/11:00pm 28.0 30.8 20.8 65 4.8 E 7 9 4 5 1013.2 - 0.0
03/10:30pm 27.9 30.2 20.7 65 4.8 E 9 13 5 7 1013.0 - 0.0
03/10:00pm 26.7 29.6 21.0 71 3.8 E 7 9 4 5 1013.2 - 0.0
03/09:30pm 26.7 29.6 21.0 71 3.8 SE 7 9 4 5 1013.5 - 0.0
03/09:00pm 27.1 29.5 20.9 69 4.1 ESE 9 11 5 6 1013.2 1012.6 0.0
03/08:30pm 28.5 30.7 20.5 62 5.3 E 9 11 5 6 1012.8 - 0.0
03/08:00pm 28.7 30.5 20.4 60 5.5 E 11 13 6 7 1012.2 - 0.0
03/07:30pm 28.8 31.0 20.3 60 5.6 E 9 13 5 7 1011.8 - 0.0
03/07:00pm 29.6 31.7 20.2 57 6.2 ENE 9 11 5 6 1011.3 - 0.0
03/06:30pm 30.3 32.0 20.2 54 6.7 ENE 11 13 6 7 1010.8 - 0.0
03/06:00pm 31.3 32.9 19.9 50 7.6 NE 11 13 6 7 1010.7 1010.0 0.0
03/05:30pm 32.1 33.6 19.7 48 8.2 NE 11 17 6 9 1010.3 - 0.0
03/05:00pm 32.5 32.7 19.4 46 8.6 NE 17 24 9 13 1009.9 - 0.0
03/04:30pm 32.8 33.0 19.3 45 8.9 ENE 17 24 9 13 1009.7 - 0.0
03/04:00pm 33.2 32.8 18.9 42 9.4 ENE 19 24 10 13 1009.7 - 0.0
03/03:30pm 33.5 33.4 18.8 41 9.7 ENE 17 26 9 14 1009.9 - 0.0
03/03:00pm 33.8 33.5 19.1 42 9.7 ENE 19 24 10 13 1010.0 - 0.0
03/02:30pm 34.3 33.1 18.3 38 10.5 ENE 22 28 12 15 1010.2 - 0.0
03/02:00pm 34.0 34.5 19.3 42 9.7 E 15 26 8 14 1010.6 - 0.0
03/01:30pm 34.1 33.4 19.4 42 9.7 E 22 32 12 17 1010.9 - 0.0
03/01:00pm 34.3 34.9 20.3 44 9.4 ENE 17 24 9 13 1011.9 - 0.0
03/12:30pm 33.6 33.9 20.4 46 8.9 ENE 19 26 10 14 1012.5 - 0.0
03/12:00pm 33.4 34.1 21.5 49 8.1 ENE 20 28 11 15 1013.2 1012.6 0.0
03/11:30am 32.0 33.4 21.8 54 6.9 E 17 24 9 13 1013.7 - 0.0
03/11:00am 31.4 33.5 22.4 59 6.2 ENE 15 22 8 12 1014.1 - 0.0
03/10:30am 30.7 33.3 22.6 62 5.6 ENE 13 20 7 11 1014.5 - 0.0
03/10:00am 30.0 32.9 22.4 63 5.2 ESE 11 17 6 9 1014.5 - 0.0
03/09:30am 28.6 32.1 22.1 68 4.4 SSE 7 11 4 6 1014.5 - 0.0
03/09:00am 27.7 30.6 21.7 70 4.0 SSE 9 11 5 6 1014.3 1013.7 0.0
03/08:30am 26.8 30.1 21.5 72 3.5 SE 6 9 3 5 1013.9 - 0.0
03/08:00am 25.9 30.6 22.0 79 2.6 CALM 0 0 0 0 1013.7 - 0.0
03/07:30am 25.0 28.5 22.1 84 1.9 E 7 9 4 5 1013.4 - 0.0
03/07:00am 24.7 27.8 22.2 86 1.7 SE 9 11 5 6 1013.2 - 0.0
03/06:30am 24.8 28.4 22.3 86 1.7 SE 7 9 4 5 1013.0 - 0.0
03/06:00am 24.8 29.7 22.3 86 1.7 CALM 0 0 0 0 1012.6 1011.9 0.0
03/05:30am 24.6 27.8 22.3 87 1.5 ESE 9 11 5 6 1012.2 - 0.0
03/05:00am 24.4 28.9 22.3 88 1.4 SW 2 6 1 3 1012.0 - 0.0
03/04:30am 24.4 28.1 22.3 88 1.4 SSE 6 7 3 4 1011.8 - 0.0
03/04:00am 24.6 29.4 22.1 86 1.7 CALM 0 0 0 0 1011.7 - 0.0
03/03:30am 24.2 28.9 21.9 87 1.5 CALM 0 0 0 0 1011.7 - 0.0
03/03:00am 24.5 28.6 22.2 87 1.5 S 4 7 2 4 1012.0 1011.3 0.0
03/02:30am 25.0 28.7 22.3 85 1.8 WNW 6 7 3 4 1012.0 - 0.0
03/02:00am 25.1 30.0 22.4 85 1.8 CALM 0 0 0 0 1012.5 - 0.0
03/01:30am 25.5 29.2 22.6 84 2.0 W 7 9 4 5 1012.9 - 0.0
03/01:00am 25.9 29.5 22.4 81 2.4 N 7 9 4 5 1013.3 - 0.0
03/12:30am 25.8 29.9 22.3 81 2.4 E 4 9 2 5 1013.7 - 0.0
03/12:00am 25.7 29.2 22.2 81 2.4 NNW 7 11 4 6 1013.9 1013.3 0.0
 
Date/Time
CST
Temp
°C
App
Temp
°C
Dew
Point
Rel
Hum
%
Delta-T
°C
Wind Press
QNH
hPa
Press
MSL
hPa
Rain
since 9 am
mm
Dir
 
Spd
km/h
Gust
km/h
Spd
kts
Gust
kts
02/11:30pm 25.7 28.7 22.0 80 2.5 NNW 9 13 5 7 1013.8 - 0.0
02/11:00pm 26.0 29.7 22.3 80 2.5 NNW 6 11 3 6 1013.8 - 0.0
02/10:30pm 26.3 29.2 22.4 79 2.6 NNW 11 15 6 8 1014.2 - 0.0
02/10:00pm 27.5 28.3 21.8 71 3.8 N 20 28 11 15 1014.2 - 0.0
02/09:30pm 30.0 29.9 20.8 57 6.1 NE 22 35 12 19 1013.8 - 0.0
02/09:00pm 28.6 31.7 22.1 68 4.4 E 9 13 5 7 1013.4 1012.8 0.0
02/08:30pm 28.5 32.5 22.0 68 4.4 S 4 7 2 4 1013.1 - 0.0
02/08:00pm 29.3 33.8 21.5 63 5.3 CALM 0 2 0 1 1012.6 - 0.0
02/07:30pm 30.1 34.6 21.5 60 5.8 CALM 0 0 0 0 1011.9 - 0.0
02/07:00pm 30.9 33.8 21.1 56 6.6 NW 7 11 4 6 1011.5 - 0.0
02/06:30pm 31.9 34.9 20.8 51 7.5 N 6 7 3 4 1011.2 - 0.0
02/06:00pm 32.1 34.4 20.7 51 7.7 SE 9 9 5 5 1010.4 1009.7 0.0
02/05:30pm 33.1 34.9 20.3 47 8.6 ESE 11 15 6 8 1010.1 - 0.0
02/05:00pm 34.1 34.8 19.7 42 9.6 ESE 15 20 8 11 1009.7 - 0.0
02/04:30pm 34.9 35.6 18.9 39 10.6 ESE 13 20 7 11 1009.6 - 0.0
02/04:00pm 34.2 35.9 20.2 43 9.4 E 11 19 6 10 1009.9 - 0.0
02/03:30pm 35.2 36.4 19.9 40 10.2 E 13 22 7 12 1010.0 - 0.0
02/03:00pm 34.1 35.0 20.1 43 9.4 E 15 24 8 13 1010.2 1009.5 0.0
02/02:30pm 34.5 36.2 20.1 43 9.6 E 11 22 6 12 1010.6 - 0.0

Other Formats:

Comma delimited format used in spreadsheet applications
http://www.bom.gov.au/fwo/IDD60801/IDD60801.94131.axf

JavaScript Object Notation format (JSON) in row-major order
http://www.bom.gov.au/fwo/IDD60801/IDD60801.94131.json